Le Ponant — FGZZ — position and weather

sailwx.info

Track history (hours):
 
Tides and Currents Weather Stations Pressure Air Temp Water Temp Dewpoint Dewpoint Depression Visibility Wind Speed Wind Dir Waves Ship Positions

Le Ponant

Operator: Compangy des Iles du Ponant

Last reported at 2018-Jun-21 16:00 UTC. Time now 2018-Jun-21 16:27 UTC.
Position N 40°50' E 014°15'.

Length 84 m; draft 4.2 m.

Type: Passenger vessel. MMSI: 227186000.

Date/timePositionNaut miles runAvg speedWind from/ knotsBaromVisibWave heightAir tempDewpointWater temp
2018-Jun-21 16:00N 40°50' E 014°15'0 0.0
2018-Jun-21 15:30N 40°50' E 014°15'0 0.0
2018-Jun-21 15:00N 40°50' E 014°15'0 0.0
2018-Jun-21 14:30N 40°50' E 014°15'0 0.0
2018-Jun-21 14:00N 40°50' E 014°15'0 0.0
2018-Jun-21 13:30N 40°50' E 014°15'0 0.0
2018-Jun-21 13:00N 40°50' E 014°15'0 0.0
2018-Jun-21 12:30N 40°50' E 014°15'0 0.0
2018-Jun-21 12:00N 40°50' E 014°15'0 0.0
2018-Jun-21 11:30N 40°50' E 014°15'0 0.0
2018-Jun-21 11:00N 40°50' E 014°15'0 0.0
2018-Jun-21 10:27N 40°50' E 014°15'0 0.0
2018-Jun-21 09:57N 40°50' E 014°15'0 0.0
2018-Jun-21 09:21N 40°50' E 014°15'0 0.0
2018-Jun-21 08:45N 40°50' E 014°15'0 0.0
2018-Jun-21 08:27N 40°50' E 014°15'0 0.0
2018-Jun-21 08:00N 40°50' E 014°15'0 0.0
2018-Jun-21 07:30N 40°50' E 014°15'0 0.0
2018-Jun-21 07:00N 40°50' E 014°15'0 0.0
2018-Jun-21 06:30N 40°50' E 014°15'0 0.0
2018-Jun-21 06:00N 40°50' E 014°15'0 0.0
2018-Jun-21 05:30N 40°50' E 014°15'0 0.0
2018-Jun-21 05:00N 40°50' E 014°15'0 0.0
2018-Jun-21 04:30N 40°50' E 014°15'0 0.0
2018-Jun-21 04:00N 40°50' E 014°15'0 0.0
2018-Jun-21 03:30N 40°50' E 014°15'0 0.0
2018-Jun-21 03:00N 40°50' E 014°15'0 0.0
2018-Jun-21 02:30N 40°50' E 014°15'0 0.0
2018-Jun-21 02:00N 40°50' E 014°15'0 0.0
2018-Jun-21 01:30N 40°50' E 014°15'0 0.0
2018-Jun-21 01:00N 40°50' E 014°15'0 0.0
2018-Jun-21 00:30N 40°50' E 014°15'0 0.0
2018-Jun-20 23:57N 40°50' E 014°15'0 0.0
2018-Jun-20 23:30N 40°50' E 014°15'0 0.0
2018-Jun-20 23:00N 40°50' E 014°15'0 0.0
2018-Jun-20 22:28N 40°50' E 014°15'0 0.0
2018-Jun-20 22:01N 40°50' E 014°15'0 0.0
2018-Jun-20 21:30N 40°50' E 014°15'0 0.4
2018-Jun-20 21:00N 40°50' E 014°16'4 8.3
2018-Jun-20 20:30N 40°46' E 014°17'510.8
2018-Jun-20 20:01N 40°41' E 014°18'510.7
2018-Jun-20 19:30N 40°35' E 014°17'4 8.8
2018-Jun-20 19:00N 40°33' E 014°22'611.1
2018-Jun-20 18:30N 40°34' E 014°29'6 0.5
2018-Jun-20 06:01N 40°37' E 014°37'010.8
2018-Jun-20 06:00N 40°36' E 014°37'610.9
2018-Jun-20 05:30N 40°31' E 014°39'610.9
2018-Jun-20 05:00N 40°26' E 014°40'610.8
2018-Jun-20 04:27N 40°20' E 014°42'110 7.0
2018-Jun-19 12:42N 38°31' E 015°02'210.5
2018-Jun-19 12:28N 38°29' E 014°60'2 0.3
2018-Jun-19 05:18N 38°27' E 014°58'56 8.4
2018-Jun-18 22:41N 38°27' E 013°47'2 9.8
2018-Jun-18 22:30N 38°27' E 013°45'5 9.7
2018-Jun-18 22:00N 38°27' E 013°39'5 9.6
2018-Jun-18 21:30N 38°27' E 013°33'5 9.7
2018-Jun-18 21:00N 38°27' E 013°27'5 9.6
2018-Jun-18 20:30N 38°27' E 013°20'5 9.4
2018-Jun-18 20:00N 38°27' E 013°14'18 9.5
2018-Jun-18 18:06N 38°20' E 012°53'210.2
2018-Jun-18 17:52N 38°19' E 012°50'410.2
2018-Jun-18 17:30N 38°17' E 012°46'9 0.6
2018-Jun-18 01:31N 38°16' E 012°58'1 8.9
2018-Jun-18 01:25N 38°16' E 012°59'4 8.8
2018-Jun-18 01:00N 38°16' E 013°03'4 8.8
2018-Jun-18 00:30N 38°17' E 013°09'4 8.6
2018-Jun-18 00:00N 38°17' E 013°14'4 8.7
2018-Jun-17 23:30N 38°18' E 013°20'4 7.5
2018-Jun-17 23:00N 38°15' E 013°23'5 9.4
2018-Jun-17 22:30N 38°11' E 013°25'4 7.5
2018-Jun-17 22:00N 38°07' E 013°23'1 2.2
2018-Jun-17 21:28N 38°08' E 013°22'0 0.0
2018-Jun-17 20:58N 38°08' E 013°22'0 0.0
2018-Jun-17 20:28N 38°08' E 013°22'0 0.0
2018-Jun-17 19:58N 38°08' E 013°22'0 0.0
2018-Jun-17 19:28N 38°08' E 013°22'0 0.0
2018-Jun-17 18:58N 38°08' E 013°22'0 0.0
2018-Jun-17 18:28N 38°08' E 013°22'0 0.0
2018-Jun-17 17:58N 38°08' E 013°22'0 0.0
2018-Jun-17 17:28N 38°08' E 013°22'0 0.0
2018-Jun-17 16:58N 38°08' E 013°22'0 0.0
2018-Jun-17 16:28N 38°08' E 013°22'0 0.0
2018-Jun-17 16:00N 38°08' E 013°22'0 0.0
2018-Jun-17 15:30N 38°08' E 013°22'0 0.0
2018-Jun-17 14:59N 38°08' E 013°22'0 0.0
2018-Jun-17 14:30N 38°08' E 013°22'0 0.0
2018-Jun-17 14:00N 38°08' E 013°22'0 0.0
2018-Jun-17 13:30N 38°08' E 013°22'0 0.0
2018-Jun-17 13:00N 38°08' E 013°22'0 0.0
2018-Jun-17 12:30N 38°08' E 013°22'0 0.0
2018-Jun-17 12:00N 38°08' E 013°22'0 0.0
2018-Jun-17 11:30N 38°08' E 013°22'0 0.0
2018-Jun-17 11:00N 38°08' E 013°22'0 0.0
2018-Jun-17 10:29N 38°08' E 013°22'0 0.0
2018-Jun-17 10:01N 38°08' E 013°22'1 3.0
2018-Jun-17 09:30N 38°08' E 013°24'3 5.4
2018-Jun-17 09:01N 38°09' E 013°27'4 7.8
2018-Jun-17 08:30N 38°10' E 013°32'4 7.9
2018-Jun-17 07:59N 38°10' E 013°37'4 7.9
2018-Jun-17 07:30N 38°11' E 013°42'4 7.9
2018-Jun-17 07:00N 38°11' E 013°46'58 8.8
2018-Jun-17 00:27N 38°18' E 014°59'4 9.7
2018-Jun-17 00:00N 38°19' E 015°05'5 9.4
2018-Jun-16 23:30N 38°19' E 015°11'5 8.8
2018-Jun-16 22:58N 38°20' E 015°17'4 8.9
2018-Jun-16 22:30N 38°20' E 015°22'5 9.4
2018-Jun-16 22:00N 38°21' E 015°28'5 9.2
2018-Jun-16 21:30N 38°20' E 015°34'5 9.0
2018-Jun-16 21:00N 38°18' E 015°39'4 5.4
2018-Jun-16 20:13N 38°14' E 015°38'211.0
2018-Jun-16 20:00N 38°12' E 015°37'610.0
2018-Jun-16 19:22N 38°06' E 015°35'  
2018-Jun-13 03:42N 37°48' E 015°20'1 6.9
2018-Jun-13 03:30N 37°49' E 015°21'7 7.7
2018-Jun-13 02:35N 37°56' E 015°25'1 7.6
2018-Jun-13 02:30N 37°56' E 015°26'6 7.6
2018-Jun-13 01:39N 38°02' E 015°30'1 7.2
2018-Jun-13 01:30N 38°03' E 015°30'4 8.2
2018-Jun-13 01:00N 38°06' E 015°33'612.7
2018-Jun-13 00:30N 38°12' E 015°36'610.2
2018-Jun-12 23:55N 38°17' E 015°40'511.4
2018-Jun-12 23:29N 38°21' E 015°37'611.3
2018-Jun-12 22:59N 38°25' E 015°32'710.7
2018-Jun-12 22:21N 38°31' E 015°27'610.3
2018-Jun-12 21:47N 38°35' E 015°22'12 1.4
2018-Jun-12 13:22N 38°42' E 015°10'511.0
2018-Jun-12 12:54N 38°37' E 015°07'510.9
2018-Jun-12 12:26N 38°33' E 015°04'511.0
2018-Jun-12 11:59N 38°29' E 014°60'1 0.1
2018-Jun-12 05:17N 38°29' E 014°59'5 7.7
2018-Jun-12 04:40N 38°33' E 014°59'1 8.5
2018-Jun-12 04:31N 38°35' E 014°59'10810.0
2018-Jun-11 17:40N 40°21' E 014°34'210.6
2018-Jun-11 17:30N 40°23' E 014°34'510.7
2018-Jun-11 17:00N 40°28' E 014°32'510.5
2018-Jun-11 16:30N 40°33' E 014°31'3 6.8
2018-Jun-11 16:00N 40°36' E 014°31'  
Track history (hours):
 
Tides and Currents Weather Stations Pressure Air Temp Water Temp Dewpoint Dewpoint Depression Visibility Wind Speed Wind Dir Waves Ship Positions

Le Ponant

Operator: Compangy des Iles du Ponant

Last reported at 2018-Jun-21 16:00 UTC. Time now 2018-Jun-21 16:27 UTC.
Position N 40°50' E 014°15'.

Length 84 m; draft 4.2 m.

Type: Passenger vessel. MMSI: 227186000.

Date/timePositionNaut miles runAvg speedWind from/ knotsBaromVisibWave heightAir tempDewpointWater temp
2018-Jun-21 16:00N 40°50' E 014°15'0 0.0
2018-Jun-21 15:30N 40°50' E 014°15'0 0.0
2018-Jun-21 15:00N 40°50' E 014°15'0 0.0
2018-Jun-21 14:30N 40°50' E 014°15'0 0.0
2018-Jun-21 14:00N 40°50' E 014°15'0 0.0
2018-Jun-21 13:30N 40°50' E 014°15'0 0.0
2018-Jun-21 13:00N 40°50' E 014°15'0 0.0
2018-Jun-21 12:30N 40°50' E 014°15'0 0.0
2018-Jun-21 12:00N 40°50' E 014°15'0 0.0
2018-Jun-21 11:30N 40°50' E 014°15'0 0.0
2018-Jun-21 11:00N 40°50' E 014°15'0 0.0
2018-Jun-21 10:27N 40°50' E 014°15'0 0.0
2018-Jun-21 09:57N 40°50' E 014°15'0 0.0
2018-Jun-21 09:21N 40°50' E 014°15'0 0.0
2018-Jun-21 08:45N 40°50' E 014°15'0 0.0
2018-Jun-21 08:27N 40°50' E 014°15'0 0.0
2018-Jun-21 08:00N 40°50' E 014°15'0 0.0
2018-Jun-21 07:30N 40°50' E 014°15'0 0.0
2018-Jun-21 07:00N 40°50' E 014°15'0 0.0
2018-Jun-21 06:30N 40°50' E 014°15'0 0.0
2018-Jun-21 06:00N 40°50' E 014°15'0 0.0
2018-Jun-21 05:30N 40°50' E 014°15'0 0.0
2018-Jun-21 05:00N 40°50' E 014°15'0 0.0
2018-Jun-21 04:30N 40°50' E 014°15'0 0.0
2018-Jun-21 04:00N 40°50' E 014°15'0 0.0
2018-Jun-21 03:30N 40°50' E 014°15'0 0.0
2018-Jun-21 03:00N 40°50' E 014°15'0 0.0
2018-Jun-21 02:30N 40°50' E 014°15'0 0.0
2018-Jun-21 02:00N 40°50' E 014°15'0 0.0
2018-Jun-21 01:30N 40°50' E 014°15'0 0.0
2018-Jun-21 01:00N 40°50' E 014°15'0 0.0
2018-Jun-21 00:30N 40°50' E 014°15'0 0.0
2018-Jun-20 23:57N 40°50' E 014°15'0 0.0
2018-Jun-20 23:30N 40°50' E 014°15'0 0.0
2018-Jun-20 23:00N 40°50' E 014°15'0 0.0
2018-Jun-20 22:28N 40°50' E 014°15'0 0.0
2018-Jun-20 22:01N 40°50' E 014°15'0 0.0
2018-Jun-20 21:30N 40°50' E 014°15'0 0.4
2018-Jun-20 21:00N 40°50' E 014°16'4 8.3
2018-Jun-20 20:30N 40°46' E 014°17'510.8
2018-Jun-20 20:01N 40°41' E 014°18'510.7
2018-Jun-20 19:30N 40°35' E 014°17'4 8.8
2018-Jun-20 19:00N 40°33' E 014°22'611.1
2018-Jun-20 18:30N 40°34' E 014°29'6 0.5
2018-Jun-20 06:01N 40°37' E 014°37'010.8
2018-Jun-20 06:00N 40°36' E 014°37'610.9
2018-Jun-20 05:30N 40°31' E 014°39'610.9
2018-Jun-20 05:00N 40°26' E 014°40'610.8
2018-Jun-20 04:27N 40°20' E 014°42'110 7.0
2018-Jun-19 12:42N 38°31' E 015°02'210.5
2018-Jun-19 12:28N 38°29' E 014°60'2 0.3
2018-Jun-19 05:18N 38°27' E 014°58'56 8.4
2018-Jun-18 22:41N 38°27' E 013°47'2 9.8
2018-Jun-18 22:30N 38°27' E 013°45'5 9.7
2018-Jun-18 22:00N 38°27' E 013°39'5 9.6
2018-Jun-18 21:30N 38°27' E 013°33'5 9.7
2018-Jun-18 21:00N 38°27' E 013°27'5 9.6
2018-Jun-18 20:30N 38°27' E 013°20'5 9.4
2018-Jun-18 20:00N 38°27' E 013°14'18 9.5
2018-Jun-18 18:06N 38°20' E 012°53'210.2
2018-Jun-18 17:52N 38°19' E 012°50'410.2
2018-Jun-18 17:30N 38°17' E 012°46'9 0.6
2018-Jun-18 01:31N 38°16' E 012°58'1 8.9
2018-Jun-18 01:25N 38°16' E 012°59'4 8.8
2018-Jun-18 01:00N 38°16' E 013°03'4 8.8
2018-Jun-18 00:30N 38°17' E 013°09'4 8.6
2018-Jun-18 00:00N 38°17' E 013°14'4 8.7
2018-Jun-17 23:30N 38°18' E 013°20'4 7.5
2018-Jun-17 23:00N 38°15' E 013°23'5 9.4
2018-Jun-17 22:30N 38°11' E 013°25'4 7.5
2018-Jun-17 22:00N 38°07' E 013°23'1 2.2
2018-Jun-17 21:28N 38°08' E 013°22'0 0.0
2018-Jun-17 20:58N 38°08' E 013°22'0 0.0
2018-Jun-17 20:28N 38°08' E 013°22'0 0.0
2018-Jun-17 19:58N 38°08' E 013°22'0 0.0
2018-Jun-17 19:28N 38°08' E 013°22'0 0.0
2018-Jun-17 18:58N 38°08' E 013°22'0 0.0
2018-Jun-17 18:28N 38°08' E 013°22'0 0.0
2018-Jun-17 17:58N 38°08' E 013°22'0 0.0
2018-Jun-17 17:28N 38°08' E 013°22'0 0.0
2018-Jun-17 16:58N 38°08' E 013°22'0 0.0
2018-Jun-17 16:28N 38°08' E 013°22'0 0.0
2018-Jun-17 16:00N 38°08' E 013°22'0 0.0
2018-Jun-17 15:30N 38°08' E 013°22'0 0.0
2018-Jun-17 14:59N 38°08' E 013°22'0 0.0
2018-Jun-17 14:30N 38°08' E 013°22'0 0.0
2018-Jun-17 14:00N 38°08' E 013°22'0 0.0
2018-Jun-17 13:30N 38°08' E 013°22'0 0.0
2018-Jun-17 13:00N 38°08' E 013°22'0 0.0
2018-Jun-17 12:30N 38°08' E 013°22'0 0.0
2018-Jun-17 12:00N 38°08' E 013°22'0 0.0
2018-Jun-17 11:30N 38°08' E 013°22'0 0.0
2018-Jun-17 11:00N 38°08' E 013°22'0 0.0
2018-Jun-17 10:29N 38°08' E 013°22'0 0.0
2018-Jun-17 10:01N 38°08' E 013°22'1 3.0
2018-Jun-17 09:30N 38°08' E 013°24'3 5.4
2018-Jun-17 09:01N 38°09' E 013°27'4 7.8
2018-Jun-17 08:30N 38°10' E 013°32'4 7.9
2018-Jun-17 07:59N 38°10' E 013°37'4 7.9
2018-Jun-17 07:30N 38°11' E 013°42'4 7.9
2018-Jun-17 07:00N 38°11' E 013°46'58 8.8
2018-Jun-17 00:27N 38°18' E 014°59'4 9.7
2018-Jun-17 00:00N 38°19' E 015°05'5 9.4
2018-Jun-16 23:30N 38°19' E 015°11'5 8.8
2018-Jun-16 22:58N 38°20' E 015°17'4 8.9
2018-Jun-16 22:30N 38°20' E 015°22'5 9.4
2018-Jun-16 22:00N 38°21' E 015°28'5 9.2
2018-Jun-16 21:30N 38°20' E 015°34'5 9.0
2018-Jun-16 21:00N 38°18' E 015°39'4 5.4
2018-Jun-16 20:13N 38°14' E 015°38'211.0
2018-Jun-16 20:00N 38°12' E 015°37'610.0
2018-Jun-16 19:22N 38°06' E 015°35'  
2018-Jun-13 03:42N 37°48' E 015°20'1 6.9
2018-Jun-13 03:30N 37°49' E 015°21'7 7.7
2018-Jun-13 02:35N 37°56' E 015°25'1 7.6
2018-Jun-13 02:30N 37°56' E 015°26'6 7.6
2018-Jun-13 01:39N 38°02' E 015°30'1 7.2
2018-Jun-13 01:30N 38°03' E 015°30'4 8.2
2018-Jun-13 01:00N 38°06' E 015°33'612.7
2018-Jun-13 00:30N 38°12' E 015°36'610.2
2018-Jun-12 23:55N 38°17' E 015°40'511.4
2018-Jun-12 23:29N 38°21' E 015°37'611.3
2018-Jun-12 22:59N 38°25' E 015°32'710.7
2018-Jun-12 22:21N 38°31' E 015°27'610.3
2018-Jun-12 21:47N 38°35' E 015°22'12 1.4
2018-Jun-12 13:22N 38°42' E 015°10'511.0
2018-Jun-12 12:54N 38°37' E 015°07'510.9
2018-Jun-12 12:26N 38°33' E 015°04'511.0
2018-Jun-12 11:59N 38°29' E 014°60'1 0.1
2018-Jun-12 05:17N 38°29' E 014°59'5 7.7
2018-Jun-12 04:40N 38°33' E 014°59'1 8.5
2018-Jun-12 04:31N 38°35' E 014°59'10810.0
2018-Jun-11 17:40N 40°21' E 014°34'210.6
2018-Jun-11 17:30N 40°23' E 014°34'510.7
2018-Jun-11 17:00N 40°28' E 014°32'510.5
2018-Jun-11 16:30N 40°33' E 014°31'3 6.8
2018-Jun-11 16:00N 40°36' E 014°31'  

Dump ship's entire track history